sensor_id;sensor_type;location;lat;lon;timestamp;P1;durP1;ratioP1;P2;durP2;ratioP2
72813;SDS011;60945;48.516;-2.768;2022-10-16T00:01:51;8.00;;;1.92;;
72813;SDS011;60945;48.516;-2.768;2022-10-16T00:04:16;8.35;;;1.63;;
72813;SDS011;60945;48.516;-2.768;2022-10-16T00:06:42;5.25;;;1.60;;
72813;SDS011;60945;48.516;-2.768;2022-10-16T00:09:08;8.55;;;1.90;;
72813;SDS011;60945;48.516;-2.768;2022-10-16T00:11:34;5.07;;;1.80;;
72813;SDS011;60945;48.516;-2.768;2022-10-16T00:14:02;5.97;;;1.70;;
72813;SDS011;60945;48.516;-2.768;2022-10-16T00:16:30;6.03;;;1.60;;
72813;SDS011;60945;48.516;-2.768;2022-10-16T00:18:56;7.40;;;1.50;;
72813;SDS011;60945;48.516;-2.768;2022-10-16T00:21:23;6.40;;;1.65;;
72813;SDS011;60945;48.516;-2.768;2022-10-16T00:23:51;7.75;;;1.75;;
72813;SDS011;60945;48.516;-2.768;2022-10-16T00:26:28;6.70;;;1.80;;
72813;SDS011;60945;48.516;-2.768;2022-10-16T00:28:55;5.43;;;1.50;;
72813;SDS011;60945;48.516;-2.768;2022-10-16T00:31:20;4.75;;;1.48;;
72813;SDS011;60945;48.516;-2.768;2022-10-16T00:33:48;6.13;;;1.77;;
72813;SDS011;60945;48.516;-2.768;2022-10-16T00:36:15;7.40;;;1.70;;
72813;SDS011;60945;48.516;-2.768;2022-10-16T00:38:43;6.72;;;1.77;;
72813;SDS011;60945;48.516;-2.768;2022-10-16T00:41:10;4.38;;;1.30;;
72813;SDS011;60945;48.516;-2.768;2022-10-16T00:46:13;5.28;;;1.77;;
72813;SDS011;60945;48.516;-2.768;2022-10-16T00:48:43;9.18;;;2.05;;
72813;SDS011;60945;48.516;-2.768;2022-10-16T00:51:18;8.00;;;1.38;;
72813;SDS011;60945;48.516;-2.768;2022-10-16T00:53:46;6.25;;;1.60;;
72813;SDS011;60945;48.516;-2.768;2022-10-16T00:56:11;7.05;;;1.60;;
72813;SDS011;60945;48.516;-2.768;2022-10-16T00:58:37;8.80;;;1.70;;
72813;SDS011;60945;48.516;-2.768;2022-10-16T01:01:05;8.77;;;2.63;;
72813;SDS011;60945;48.516;-2.768;2022-10-16T01:03:32;6.65;;;1.60;;
72813;SDS011;60945;48.516;-2.768;2022-10-16T01:08:47;8.85;;;1.95;;
72813;SDS011;60945;48.516;-2.768;2022-10-16T01:14:26;9.55;;;1.63;;
72813;SDS011;60945;48.516;-2.768;2022-10-16T01:17:01;4.75;;;1.38;;
72813;SDS011;60945;48.516;-2.768;2022-10-16T01:22:37;5.28;;;1.48;;
72813;SDS011;60945;48.516;-2.768;2022-10-16T01:25:05;6.15;;;1.60;;
72813;SDS011;60945;48.516;-2.768;2022-10-16T01:27:37;6.18;;;1.63;;
72813;SDS011;60945;48.516;-2.768;2022-10-16T01:33:16;7.95;;;1.40;;
72813;SDS011;60945;48.516;-2.768;2022-10-16T01:35:37;7.43;;;1.70;;
72813;SDS011;60945;48.516;-2.768;2022-10-16T01:38:17;4.40;;;1.52;;
72813;SDS011;60945;48.516;-2.768;2022-10-16T01:40:53;3.92;;;1.50;;
72813;SDS011;60945;48.516;-2.768;2022-10-16T01:44:16;5.03;;;1.50;;
72813;SDS011;60945;48.516;-2.768;2022-10-16T01:46:30;5.43;;;1.30;;
72813;SDS011;60945;48.516;-2.768;2022-10-16T01:48:56;6.93;;;1.65;;
72813;SDS011;60945;48.516;-2.768;2022-10-16T01:51:24;5.72;;;1.70;;
72813;SDS011;60945;48.516;-2.768;2022-10-16T01:53:52;6.45;;;1.65;;
72813;SDS011;60945;48.516;-2.768;2022-10-16T01:56:20;3.65;;;1.60;;
72813;SDS011;60945;48.516;-2.768;2022-10-16T02:01:46;5.20;;;1.38;;
72813;SDS011;60945;48.516;-2.768;2022-10-16T02:04:29;3.13;;;1.23;;
72813;SDS011;60945;48.516;-2.768;2022-10-16T02:06:59;7.97;;;1.90;;
72813;SDS011;60945;48.516;-2.768;2022-10-16T02:09:25;3.38;;;1.40;;
72813;SDS011;60945;48.516;-2.768;2022-10-16T02:11:52;5.70;;;1.80;;
72813;SDS011;60945;48.516;-2.768;2022-10-16T02:14:19;5.15;;;1.60;;
72813;SDS011;60945;48.516;-2.768;2022-10-16T02:16:47;6.22;;;1.63;;
72813;SDS011;60945;48.516;-2.768;2022-10-16T02:19:13;6.65;;;1.67;;
72813;SDS011;60945;48.516;-2.768;2022-10-16T02:21:44;6.38;;;1.35;;
72813;SDS011;60945;48.516;-2.768;2022-10-16T02:29:37;6.00;;;1.63;;
72813;SDS011;60945;48.516;-2.768;2022-10-16T02:32:09;5.20;;;1.65;;
72813;SDS011;60945;48.516;-2.768;2022-10-16T02:34:37;7.32;;;1.67;;
72813;SDS011;60945;48.516;-2.768;2022-10-16T02:37:05;5.35;;;1.40;;
72813;SDS011;60945;48.516;-2.768;2022-10-16T02:39:31;5.78;;;1.60;;
72813;SDS011;60945;48.516;-2.768;2022-10-16T02:41:58;7.65;;;1.60;;
72813;SDS011;60945;48.516;-2.768;2022-10-16T02:44:24;6.57;;;1.77;;
72813;SDS011;60945;48.516;-2.768;2022-10-16T02:46:49;6.97;;;1.80;;
72813;SDS011;60945;48.516;-2.768;2022-10-16T02:49:15;6.28;;;1.60;;
72813;SDS011;60945;48.516;-2.768;2022-10-16T02:51:41;4.63;;;2.05;;
72813;SDS011;60945;48.516;-2.768;2022-10-16T02:54:06;5.85;;;1.60;;
72813;SDS011;60945;48.516;-2.768;2022-10-16T02:56:32;8.07;;;2.00;;
72813;SDS011;60945;48.516;-2.768;2022-10-16T02:58:58;4.80;;;1.38;;
72813;SDS011;60945;48.516;-2.768;2022-10-16T03:01:23;7.57;;;1.60;;
72813;SDS011;60945;48.516;-2.768;2022-10-16T03:03:49;6.80;;;1.80;;
72813;SDS011;60945;48.516;-2.768;2022-10-16T03:06:15;6.50;;;1.55;;
72813;SDS011;60945;48.516;-2.768;2022-10-16T03:08:41;6.53;;;1.67;;
72813;SDS011;60945;48.516;-2.768;2022-10-16T03:11:06;5.38;;;1.70;;
72813;SDS011;60945;48.516;-2.768;2022-10-16T03:13:32;5.70;;;1.52;;
72813;SDS011;60945;48.516;-2.768;2022-10-16T03:15:58;5.65;;;1.45;;
72813;SDS011;60945;48.516;-2.768;2022-10-16T03:18:23;6.35;;;2.08;;
72813;SDS011;60945;48.516;-2.768;2022-10-16T03:20:49;9.02;;;1.63;;
72813;SDS011;60945;48.516;-2.768;2022-10-16T03:23:14;4.43;;;1.45;;
72813;SDS011;60945;48.516;-2.768;2022-10-16T03:25:40;5.97;;;1.65;;
72813;SDS011;60945;48.516;-2.768;2022-10-16T03:28:06;3.38;;;1.30;;
72813;SDS011;60945;48.516;-2.768;2022-10-16T03:30:31;5.25;;;1.63;;
72813;SDS011;60945;48.516;-2.768;2022-10-16T03:32:57;5.10;;;1.70;;
72813;SDS011;60945;48.516;-2.768;2022-10-16T03:35:23;7.40;;;1.85;;
72813;SDS011;60945;48.516;-2.768;2022-10-16T03:37:49;5.00;;;1.55;;
72813;SDS011;60945;48.516;-2.768;2022-10-16T03:40:16;5.72;;;1.50;;
72813;SDS011;60945;48.516;-2.768;2022-10-16T03:42:42;4.50;;;1.30;;
72813;SDS011;60945;48.516;-2.768;2022-10-16T03:45:08;7.15;;;1.52;;
72813;SDS011;60945;48.516;-2.768;2022-10-16T03:47:35;5.40;;;1.55;;
72813;SDS011;60945;48.516;-2.768;2022-10-16T03:50:00;7.47;;;1.73;;
72813;SDS011;60945;48.516;-2.768;2022-10-16T03:52:26;6.03;;;1.50;;
72813;SDS011;60945;48.516;-2.768;2022-10-16T03:54:52;5.95;;;1.65;;
72813;SDS011;60945;48.516;-2.768;2022-10-16T03:57:18;8.35;;;2.15;;
72813;SDS011;60945;48.516;-2.768;2022-10-16T03:59:43;5.72;;;1.55;;
72813;SDS011;60945;48.516;-2.768;2022-10-16T04:02:09;8.75;;;1.73;;
72813;SDS011;60945;48.516;-2.768;2022-10-16T04:04:35;6.97;;;2.03;;
72813;SDS011;60945;48.516;-2.768;2022-10-16T04:07:01;5.45;;;2.00;;
72813;SDS011;60945;48.516;-2.768;2022-10-16T04:09:26;4.15;;;1.70;;
72813;SDS011;60945;48.516;-2.768;2022-10-16T04:11:52;7.70;;;1.55;;
72813;SDS011;60945;48.516;-2.768;2022-10-16T04:14:18;3.85;;;1.60;;
72813;SDS011;60945;48.516;-2.768;2022-10-16T04:16:43;3.50;;;1.42;;
72813;SDS011;60945;48.516;-2.768;2022-10-16T04:19:09;4.43;;;1.60;;
72813;SDS011;60945;48.516;-2.768;2022-10-16T04:21:36;5.72;;;1.85;;
72813;SDS011;60945;48.516;-2.768;2022-10-16T04:24:02;3.92;;;1.42;;
72813;SDS011;60945;48.516;-2.768;2022-10-16T04:26:28;5.88;;;1.40;;
72813;SDS011;60945;48.516;-2.768;2022-10-16T04:28:54;4.85;;;1.77;;
72813;SDS011;60945;48.516;-2.768;2022-10-16T04:31:20;4.53;;;1.40;;
72813;SDS011;60945;48.516;-2.768;2022-10-16T04:33:45;3.80;;;1.33;;
72813;SDS011;60945;48.516;-2.768;2022-10-16T04:36:11;4.45;;;1.80;;
72813;SDS011;60945;48.516;-2.768;2022-10-16T04:38:37;4.82;;;1.52;;
72813;SDS011;60945;48.516;-2.768;2022-10-16T04:41:04;5.70;;;1.10;;
72813;SDS011;60945;48.516;-2.768;2022-10-16T04:43:31;5.60;;;1.70;;
72813;SDS011;60945;48.516;-2.768;2022-10-16T04:45:56;4.03;;;1.15;;
72813;SDS011;60945;48.516;-2.768;2022-10-16T04:48:22;6.45;;;1.60;;
72813;SDS011;60945;48.516;-2.768;2022-10-16T04:50:48;6.35;;;1.95;;
72813;SDS011;60945;48.516;-2.768;2022-10-16T04:53:13;3.67;;;0.95;;
72813;SDS011;60945;48.516;-2.768;2022-10-16T04:55:40;2.83;;;1.27;;
72813;SDS011;60945;48.516;-2.768;2022-10-16T04:58:06;5.13;;;1.88;;
72813;SDS011;60945;48.516;-2.768;2022-10-16T05:00:32;4.97;;;1.90;;
72813;SDS011;60945;48.516;-2.768;2022-10-16T05:02:57;9.15;;;2.15;;
72813;SDS011;60945;48.516;-2.768;2022-10-16T05:05:25;7.47;;;2.25;;
72813;SDS011;60945;48.516;-2.768;2022-10-16T05:07:51;6.78;;;1.98;;
72813;SDS011;60945;48.516;-2.768;2022-10-16T05:10:17;10.07;;;2.30;;
72813;SDS011;60945;48.516;-2.768;2022-10-16T05:12:43;6.78;;;2.70;;
72813;SDS011;60945;48.516;-2.768;2022-10-16T05:15:09;10.07;;;2.33;;
72813;SDS011;60945;48.516;-2.768;2022-10-16T05:17:35;9.93;;;2.80;;
72813;SDS011;60945;48.516;-2.768;2022-10-16T05:20:01;9.35;;;3.40;;
72813;SDS011;60945;48.516;-2.768;2022-10-16T05:22:28;7.25;;;2.42;;
72813;SDS011;60945;48.516;-2.768;2022-10-16T05:24:53;8.60;;;2.90;;
72813;SDS011;60945;48.516;-2.768;2022-10-16T05:27:19;4.95;;;2.72;;
72813;SDS011;60945;48.516;-2.768;2022-10-16T05:29:45;6.25;;;3.13;;
72813;SDS011;60945;48.516;-2.768;2022-10-16T05:32:12;7.18;;;3.00;;
72813;SDS011;60945;48.516;-2.768;2022-10-16T05:34:42;6.63;;;2.72;;
72813;SDS011;60945;48.516;-2.768;2022-10-16T05:37:07;6.50;;;2.90;;
72813;SDS011;60945;48.516;-2.768;2022-10-16T05:39:34;7.63;;;2.90;;
72813;SDS011;60945;48.516;-2.768;2022-10-16T05:41:59;8.63;;;3.05;;
72813;SDS011;60945;48.516;-2.768;2022-10-16T05:44:25;6.00;;;2.63;;
72813;SDS011;60945;48.516;-2.768;2022-10-16T05:46:50;7.15;;;2.90;;
72813;SDS011;60945;48.516;-2.768;2022-10-16T05:49:16;5.70;;;2.25;;
72813;SDS011;60945;48.516;-2.768;2022-10-16T05:51:42;7.85;;;2.95;;
72813;SDS011;60945;48.516;-2.768;2022-10-16T05:54:07;5.68;;;2.50;;
72813;SDS011;60945;48.516;-2.768;2022-10-16T05:56:33;7.57;;;2.78;;
72813;SDS011;60945;48.516;-2.768;2022-10-16T05:58:59;8.25;;;2.90;;
72813;SDS011;60945;48.516;-2.768;2022-10-16T06:01:24;7.15;;;2.80;;
72813;SDS011;60945;48.516;-2.768;2022-10-16T06:03:50;7.45;;;2.70;;
72813;SDS011;60945;48.516;-2.768;2022-10-16T06:06:18;8.57;;;2.70;;
72813;SDS011;60945;48.516;-2.768;2022-10-16T06:08:46;5.75;;;2.35;;
72813;SDS011;60945;48.516;-2.768;2022-10-16T06:11:13;7.03;;;2.70;;
72813;SDS011;60945;48.516;-2.768;2022-10-16T06:13:41;7.47;;;2.40;;
72813;SDS011;60945;48.516;-2.768;2022-10-16T06:16:08;4.53;;;2.00;;
72813;SDS011;60945;48.516;-2.768;2022-10-16T06:18:35;6.45;;;2.70;;
72813;SDS011;60945;48.516;-2.768;2022-10-16T06:21:06;5.57;;;2.33;;
72813;SDS011;60945;48.516;-2.768;2022-10-16T06:23:33;5.45;;;1.92;;
72813;SDS011;60945;48.516;-2.768;2022-10-16T06:26:06;3.65;;;2.10;;
72813;SDS011;60945;48.516;-2.768;2022-10-16T06:28:33;4.93;;;2.00;;
72813;SDS011;60945;48.516;-2.768;2022-10-16T06:30:59;3.50;;;1.92;;
72813;SDS011;60945;48.516;-2.768;2022-10-16T06:33:25;4.57;;;2.13;;
72813;SDS011;60945;48.516;-2.768;2022-10-16T06:35:51;7.07;;;2.10;;
72813;SDS011;60945;48.516;-2.768;2022-10-16T06:38:17;7.07;;;2.63;;
72813;SDS011;60945;48.516;-2.768;2022-10-16T06:40:42;6.13;;;2.45;;
72813;SDS011;60945;48.516;-2.768;2022-10-16T06:43:08;8.95;;;2.35;;
72813;SDS011;60945;48.516;-2.768;2022-10-16T06:45:33;7.72;;;1.90;;
72813;SDS011;60945;48.516;-2.768;2022-10-16T06:47:59;5.10;;;2.08;;
72813;SDS011;60945;48.516;-2.768;2022-10-16T06:50:24;6.88;;;2.38;;
72813;SDS011;60945;48.516;-2.768;2022-10-16T06:52:50;5.72;;;2.50;;
72813;SDS011;60945;48.516;-2.768;2022-10-16T06:55:16;6.47;;;2.50;;
72813;SDS011;60945;48.516;-2.768;2022-10-16T06:57:42;7.65;;;3.40;;
72813;SDS011;60945;48.516;-2.768;2022-10-16T07:00:09;5.13;;;2.75;;
72813;SDS011;60945;48.516;-2.768;2022-10-16T07:02:34;6.43;;;2.83;;
72813;SDS011;60945;48.516;-2.768;2022-10-16T07:05:00;7.20;;;3.28;;
72813;SDS011;60945;48.516;-2.768;2022-10-16T07:07:26;6.75;;;2.60;;
72813;SDS011;60945;48.516;-2.768;2022-10-16T07:09:51;4.30;;;2.60;;
72813;SDS011;60945;48.516;-2.768;2022-10-16T07:12:17;5.55;;;2.30;;
72813;SDS011;60945;48.516;-2.768;2022-10-16T07:14:43;5.32;;;2.28;;
72813;SDS011;60945;48.516;-2.768;2022-10-16T07:17:08;3.50;;;2.05;;
72813;SDS011;60945;48.516;-2.768;2022-10-16T07:19:34;6.68;;;2.25;;
72813;SDS011;60945;48.516;-2.768;2022-10-16T07:22:00;7.82;;;2.30;;
72813;SDS011;60945;48.516;-2.768;2022-10-16T07:24:26;6.53;;;2.55;;
72813;SDS011;60945;48.516;-2.768;2022-10-16T07:26:51;4.72;;;2.40;;
72813;SDS011;60945;48.516;-2.768;2022-10-16T07:29:18;6.53;;;2.40;;
72813;SDS011;60945;48.516;-2.768;2022-10-16T07:31:45;5.43;;;2.35;;
72813;SDS011;60945;48.516;-2.768;2022-10-16T07:34:12;5.93;;;2.30;;
72813;SDS011;60945;48.516;-2.768;2022-10-16T07:36:39;8.52;;;2.60;;
72813;SDS011;60945;48.516;-2.768;2022-10-16T07:39:05;5.93;;;2.22;;
72813;SDS011;60945;48.516;-2.768;2022-10-16T07:41:31;4.38;;;2.45;;
72813;SDS011;60945;48.516;-2.768;2022-10-16T07:43:58;3.42;;;1.90;;
72813;SDS011;60945;48.516;-2.768;2022-10-16T07:46:27;3.28;;;1.70;;
72813;SDS011;60945;48.516;-2.768;2022-10-16T07:48:53;5.18;;;2.17;;
72813;SDS011;60945;48.516;-2.768;2022-10-16T07:51:20;5.38;;;2.28;;
72813;SDS011;60945;48.516;-2.768;2022-10-16T07:53:49;5.63;;;2.10;;
72813;SDS011;60945;48.516;-2.768;2022-10-16T07:56:16;4.38;;;2.40;;
72813;SDS011;60945;48.516;-2.768;2022-10-16T07:58:43;5.22;;;2.63;;
72813;SDS011;60945;48.516;-2.768;2022-10-16T08:01:10;5.45;;;2.90;;
72813;SDS011;60945;48.516;-2.768;2022-10-16T08:03:38;5.15;;;2.70;;
72813;SDS011;60945;48.516;-2.768;2022-10-16T08:06:06;5.47;;;2.70;;
72813;SDS011;60945;48.516;-2.768;2022-10-16T08:08:32;4.35;;;2.95;;
72813;SDS011;60945;48.516;-2.768;2022-10-16T08:10:58;6.25;;;2.85;;
72813;SDS011;60945;48.516;-2.768;2022-10-16T08:13:23;5.57;;;2.63;;
72813;SDS011;60945;48.516;-2.768;2022-10-16T08:15:49;7.32;;;3.20;;
72813;SDS011;60945;48.516;-2.768;2022-10-16T08:18:15;6.10;;;3.15;;
72813;SDS011;60945;48.516;-2.768;2022-10-16T08:20:41;6.18;;;3.22;;
72813;SDS011;60945;48.516;-2.768;2022-10-16T08:23:09;6.07;;;3.53;;
72813;SDS011;60945;48.516;-2.768;2022-10-16T08:25:36;7.20;;;3.38;;
72813;SDS011;60945;48.516;-2.768;2022-10-16T08:28:08;5.70;;;3.13;;
72813;SDS011;60945;48.516;-2.768;2022-10-16T08:30:35;5.50;;;2.67;;
72813;SDS011;60945;48.516;-2.768;2022-10-16T08:33:02;5.47;;;2.70;;
72813;SDS011;60945;48.516;-2.768;2022-10-16T08:35:28;6.68;;;2.70;;
72813;SDS011;60945;48.516;-2.768;2022-10-16T08:37:54;6.50;;;3.30;;
72813;SDS011;60945;48.516;-2.768;2022-10-16T08:40:27;4.68;;;2.13;;
72813;SDS011;60945;48.516;-2.768;2022-10-16T08:48:33;5.53;;;2.30;;
72813;SDS011;60945;48.516;-2.768;2022-10-16T08:51:19;5.60;;;2.47;;
72813;SDS011;60945;48.516;-2.768;2022-10-16T08:53:55;6.43;;;3.15;;
72813;SDS011;60945;48.516;-2.768;2022-10-16T08:56:23;6.93;;;2.60;;
72813;SDS011;60945;48.516;-2.768;2022-10-16T08:58:50;6.90;;;2.53;;
72813;SDS011;60945;48.516;-2.768;2022-10-16T09:01:17;7.70;;;2.92;;
72813;SDS011;60945;48.516;-2.768;2022-10-16T09:09:37;6.38;;;3.20;;
72813;SDS011;60945;48.516;-2.768;2022-10-16T09:12:22;7.60;;;2.80;;
72813;SDS011;60945;48.516;-2.768;2022-10-16T09:23:19;6.03;;;3.30;;
72813;SDS011;60945;48.516;-2.768;2022-10-16T09:25:50;7.53;;;2.88;;
72813;SDS011;60945;48.516;-2.768;2022-10-16T09:28:17;8.23;;;3.22;;
72813;SDS011;60945;48.516;-2.768;2022-10-16T09:30:44;4.40;;;2.85;;
72813;SDS011;60945;48.516;-2.768;2022-10-16T09:33:11;6.70;;;3.28;;
72813;SDS011;60945;48.516;-2.768;2022-10-16T09:35:38;5.82;;;3.03;;
72813;SDS011;60945;48.516;-2.768;2022-10-16T09:38:07;8.75;;;3.45;;
72813;SDS011;60945;48.516;-2.768;2022-10-16T09:40:37;5.35;;;3.17;;
72813;SDS011;60945;48.516;-2.768;2022-10-16T09:46:01;5.10;;;2.88;;
72813;SDS011;60945;48.516;-2.768;2022-10-16T09:48:44;4.53;;;2.60;;
72813;SDS011;60945;48.516;-2.768;2022-10-16T09:51:18;6.40;;;2.80;;
72813;SDS011;60945;48.516;-2.768;2022-10-16T09:53:45;4.68;;;2.40;;
72813;SDS011;60945;48.516;-2.768;2022-10-16T09:56:12;5.18;;;2.40;;
72813;SDS011;60945;48.516;-2.768;2022-10-16T09:58:53;4.32;;;2.00;;
72813;SDS011;60945;48.516;-2.768;2022-10-16T10:01:20;4.20;;;2.00;;
72813;SDS011;60945;48.516;-2.768;2022-10-16T10:03:49;3.20;;;1.90;;
72813;SDS011;60945;48.516;-2.768;2022-10-16T10:08:54;3.05;;;1.60;;
72813;SDS011;60945;48.516;-2.768;2022-10-16T10:11:42;4.38;;;1.63;;
72813;SDS011;60945;48.516;-2.768;2022-10-16T10:16:46;4.45;;;2.08;;
72813;SDS011;60945;48.516;-2.768;2022-10-16T10:19:14;3.60;;;1.58;;
72813;SDS011;60945;48.516;-2.768;2022-10-16T10:21:47;3.40;;;1.65;;
72813;SDS011;60945;48.516;-2.768;2022-10-16T10:24:14;2.63;;;1.40;;
72813;SDS011;60945;48.516;-2.768;2022-10-16T10:26:44;5.13;;;1.80;;
72813;SDS011;60945;48.516;-2.768;2022-10-16T10:35:00;3.35;;;1.73;;
72813;SDS011;60945;48.516;-2.768;2022-10-16T10:37:55;3.40;;;1.45;;
72813;SDS011;60945;48.516;-2.768;2022-10-16T10:46:02;6.05;;;1.80;;
72813;SDS011;60945;48.516;-2.768;2022-10-16T10:54:40;4.72;;;1.58;;
72813;SDS011;60945;48.516;-2.768;2022-10-16T10:57:04;5.63;;;1.90;;
72813;SDS011;60945;48.516;-2.768;2022-10-16T10:59:53;2.00;;;1.20;;
72813;SDS011;60945;48.516;-2.768;2022-10-16T11:08:19;5.57;;;2.03;;
72813;SDS011;60945;48.516;-2.768;2022-10-16T11:10:52;4.47;;;3.00;;
72813;SDS011;60945;48.516;-2.768;2022-10-16T11:16:19;11.15;;;5.70;;
72813;SDS011;60945;48.516;-2.768;2022-10-16T11:21:19;3.38;;;1.83;;
72813;SDS011;60945;48.516;-2.768;2022-10-16T11:26:19;3.72;;;2.20;;
72813;SDS011;60945;48.516;-2.768;2022-10-16T11:28:50;3.90;;;1.48;;
72813;SDS011;60945;48.516;-2.768;2022-10-16T11:39:44;2.53;;;1.33;;
72813;SDS011;60945;48.516;-2.768;2022-10-16T11:42:13;4.82;;;2.28;;
72813;SDS011;60945;48.516;-2.768;2022-10-16T11:47:13;4.22;;;2.42;;
72813;SDS011;60945;48.516;-2.768;2022-10-16T11:49:44;5.00;;;2.00;;
72813;SDS011;60945;48.516;-2.768;2022-10-16T11:54:59;5.53;;;3.63;;
72813;SDS011;60945;48.516;-2.768;2022-10-16T11:57:35;3.92;;;2.00;;
72813;SDS011;60945;48.516;-2.768;2022-10-16T12:00:17;3.38;;;1.70;;
72813;SDS011;60945;48.516;-2.768;2022-10-16T12:06:27;2.65;;;1.75;;
72813;SDS011;60945;48.516;-2.768;2022-10-16T12:08:59;4.10;;;1.85;;
72813;SDS011;60945;48.516;-2.768;2022-10-16T12:16:36;3.83;;;1.63;;
72813;SDS011;60945;48.516;-2.768;2022-10-16T12:19:25;2.92;;;1.65;;
72813;SDS011;60945;48.516;-2.768;2022-10-16T12:21:53;3.35;;;2.45;;
72813;SDS011;60945;48.516;-2.768;2022-10-16T12:26:47;3.47;;;1.73;;
72813;SDS011;60945;48.516;-2.768;2022-10-16T12:29:33;3.28;;;1.30;;
72813;SDS011;60945;48.516;-2.768;2022-10-16T12:32:21;2.40;;;1.35;;
72813;SDS011;60945;48.516;-2.768;2022-10-16T12:34:48;3.03;;;1.50;;
72813;SDS011;60945;48.516;-2.768;2022-10-16T12:37:24;3.22;;;1.40;;
72813;SDS011;60945;48.516;-2.768;2022-10-16T12:39:53;2.70;;;1.52;;
72813;SDS011;60945;48.516;-2.768;2022-10-16T12:44:52;3.53;;;2.00;;
72813;SDS011;60945;48.516;-2.768;2022-10-16T12:47:36;4.68;;;1.52;;
72813;SDS011;60945;48.516;-2.768;2022-10-16T12:50:25;3.05;;;1.80;;
72813;SDS011;60945;48.516;-2.768;2022-10-16T12:53:24;1.95;;;1.23;;
72813;SDS011;60945;48.516;-2.768;2022-10-16T13:00:57;3.08;;;1.02;;
72813;SDS011;60945;48.516;-2.768;2022-10-16T13:04:33;3.65;;;1.27;;
72813;SDS011;60945;48.516;-2.768;2022-10-16T13:06:39;2.03;;;1.20;;
72813;SDS011;60945;48.516;-2.768;2022-10-16T13:09:33;3.70;;;1.73;;
72813;SDS011;60945;48.516;-2.768;2022-10-16T13:15:01;5.45;;;2.90;;
72813;SDS011;60945;48.516;-2.768;2022-10-16T13:20:46;3.88;;;2.33;;
72813;SDS011;60945;48.516;-2.768;2022-10-16T13:23:38;2.92;;;1.70;;
72813;SDS011;60945;48.516;-2.768;2022-10-16T13:26:49;3.10;;;1.58;;
72813;SDS011;60945;48.516;-2.768;2022-10-16T13:29:32;3.10;;;1.60;;
72813;SDS011;60945;48.516;-2.768;2022-10-16T13:32:06;2.60;;;1.80;;
72813;SDS011;60945;48.516;-2.768;2022-10-16T13:34:41;7.75;;;2.10;;
72813;SDS011;60945;48.516;-2.768;2022-10-16T13:37:21;2.90;;;1.63;;
72813;SDS011;60945;48.516;-2.768;2022-10-16T13:39:48;2.35;;;1.52;;
72813;SDS011;60945;48.516;-2.768;2022-10-16T13:42:23;5.05;;;2.45;;
72813;SDS011;60945;48.516;-2.768;2022-10-16T13:44:53;8.25;;;4.03;;
72813;SDS011;60945;48.516;-2.768;2022-10-16T13:47:21;9.90;;;5.82;;
72813;SDS011;60945;48.516;-2.768;2022-10-16T13:52:37;4.07;;;2.50;;
72813;SDS011;60945;48.516;-2.768;2022-10-16T13:55:04;3.88;;;1.80;;
72813;SDS011;60945;48.516;-2.768;2022-10-16T13:57:37;3.17;;;1.80;;
72813;SDS011;60945;48.516;-2.768;2022-10-16T14:00:03;3.72;;;1.98;;
72813;SDS011;60945;48.516;-2.768;2022-10-16T14:02:50;4.60;;;2.10;;
72813;SDS011;60945;48.516;-2.768;2022-10-16T14:05:21;2.72;;;1.42;;
72813;SDS011;60945;48.516;-2.768;2022-10-16T14:07:48;2.28;;;1.60;;
72813;SDS011;60945;48.516;-2.768;2022-10-16T14:10:23;1.77;;;1.33;;
72813;SDS011;60945;48.516;-2.768;2022-10-16T14:12:59;1.90;;;1.35;;
72813;SDS011;60945;48.516;-2.768;2022-10-16T14:15:27;1.48;;;1.08;;
72813;SDS011;60945;48.516;-2.768;2022-10-16T14:17:55;3.65;;;1.50;;
72813;SDS011;60945;48.516;-2.768;2022-10-16T14:20:24;3.47;;;1.58;;
72813;SDS011;60945;48.516;-2.768;2022-10-16T14:22:59;1.85;;;1.30;;
72813;SDS011;60945;48.516;-2.768;2022-10-16T14:25:28;2.28;;;1.50;;
72813;SDS011;60945;48.516;-2.768;2022-10-16T14:27:59;2.17;;;1.23;;
72813;SDS011;60945;48.516;-2.768;2022-10-16T14:30:27;2.50;;;1.38;;
72813;SDS011;60945;48.516;-2.768;2022-10-16T14:33:02;4.45;;;1.77;;
72813;SDS011;60945;48.516;-2.768;2022-10-16T14:35:44;2.20;;;1.30;;
72813;SDS011;60945;48.516;-2.768;2022-10-16T14:38:18;2.25;;;1.20;;
72813;SDS011;60945;48.516;-2.768;2022-10-16T14:40:48;1.88;;;1.30;;
72813;SDS011;60945;48.516;-2.768;2022-10-16T14:43:16;2.28;;;1.30;;
72813;SDS011;60945;48.516;-2.768;2022-10-16T14:45:52;2.90;;;1.23;;
72813;SDS011;60945;48.516;-2.768;2022-10-16T14:48:19;3.33;;;1.40;;
72813;SDS011;60945;48.516;-2.768;2022-10-16T14:50:46;2.15;;;1.02;;
72813;SDS011;60945;48.516;-2.768;2022-10-16T14:53:11;2.25;;;1.20;;
72813;SDS011;60945;48.516;-2.768;2022-10-16T14:55:38;2.95;;;1.70;;
72813;SDS011;60945;48.516;-2.768;2022-10-16T14:58:05;2.70;;;1.20;;
72813;SDS011;60945;48.516;-2.768;2022-10-16T15:00:31;2.92;;;1.80;;
72813;SDS011;60945;48.516;-2.768;2022-10-16T15:02:56;4.68;;;1.90;;
72813;SDS011;60945;48.516;-2.768;2022-10-16T15:05:23;2.33;;;1.45;;
72813;SDS011;60945;48.516;-2.768;2022-10-16T15:07:53;2.30;;;1.48;;
72813;SDS011;60945;48.516;-2.768;2022-10-16T15:10:20;2.92;;;1.80;;
72813;SDS011;60945;48.516;-2.768;2022-10-16T15:12:47;2.42;;;1.33;;
72813;SDS011;60945;48.516;-2.768;2022-10-16T15:18:01;4.18;;;1.80;;
72813;SDS011;60945;48.516;-2.768;2022-10-16T15:20:29;2.80;;;1.67;;
72813;SDS011;60945;48.516;-2.768;2022-10-16T15:23:03;3.25;;;2.10;;
72813;SDS011;60945;48.516;-2.768;2022-10-16T15:27:58;3.55;;;1.60;;
72813;SDS011;60945;48.516;-2.768;2022-10-16T15:30:25;3.33;;;1.42;;
72813;SDS011;60945;48.516;-2.768;2022-10-16T15:32:50;3.85;;;1.67;;
72813;SDS011;60945;48.516;-2.768;2022-10-16T15:35:16;3.03;;;1.70;;
72813;SDS011;60945;48.516;-2.768;2022-10-16T15:37:42;4.30;;;2.25;;
72813;SDS011;60945;48.516;-2.768;2022-10-16T15:40:08;3.53;;;2.30;;
72813;SDS011;60945;48.516;-2.768;2022-10-16T15:42:35;4.43;;;2.55;;
72813;SDS011;60945;48.516;-2.768;2022-10-16T15:45:01;2.45;;;1.50;;
72813;SDS011;60945;48.516;-2.768;2022-10-16T15:47:28;3.20;;;1.90;;
72813;SDS011;60945;48.516;-2.768;2022-10-16T15:49:54;2.95;;;1.80;;
72813;SDS011;60945;48.516;-2.768;2022-10-16T15:52:20;3.17;;;1.90;;
72813;SDS011;60945;48.516;-2.768;2022-10-16T15:54:45;4.20;;;1.83;;
72813;SDS011;60945;48.516;-2.768;2022-10-16T15:57:11;3.80;;;1.75;;
72813;SDS011;60945;48.516;-2.768;2022-10-16T15:59:36;2.83;;;1.60;;
72813;SDS011;60945;48.516;-2.768;2022-10-16T16:02:02;3.38;;;1.92;;
72813;SDS011;60945;48.516;-2.768;2022-10-16T16:04:31;3.83;;;1.95;;
72813;SDS011;60945;48.516;-2.768;2022-10-16T16:06:57;3.63;;;1.90;;
72813;SDS011;60945;48.516;-2.768;2022-10-16T16:09:22;4.22;;;2.00;;
72813;SDS011;60945;48.516;-2.768;2022-10-16T16:11:48;3.28;;;1.58;;
72813;SDS011;60945;48.516;-2.768;2022-10-16T16:14:16;3.10;;;1.85;;
72813;SDS011;60945;48.516;-2.768;2022-10-16T16:16:42;4.53;;;2.25;;
72813;SDS011;60945;48.516;-2.768;2022-10-16T16:19:07;3.97;;;2.15;;
72813;SDS011;60945;48.516;-2.768;2022-10-16T16:21:34;4.03;;;2.65;;
72813;SDS011;60945;48.516;-2.768;2022-10-16T16:24:00;3.40;;;2.10;;
72813;SDS011;60945;48.516;-2.768;2022-10-16T16:26:29;3.38;;;1.75;;
72813;SDS011;60945;48.516;-2.768;2022-10-16T16:29:01;5.47;;;2.03;;
72813;SDS011;60945;48.516;-2.768;2022-10-16T16:31:28;2.88;;;1.65;;
72813;SDS011;60945;48.516;-2.768;2022-10-16T16:33:55;3.35;;;1.92;;
72813;SDS011;60945;48.516;-2.768;2022-10-16T16:36:22;3.22;;;2.03;;
72813;SDS011;60945;48.516;-2.768;2022-10-16T16:38:48;3.10;;;1.70;;
72813;SDS011;60945;48.516;-2.768;2022-10-16T16:41:15;4.18;;;2.10;;
72813;SDS011;60945;48.516;-2.768;2022-10-16T16:43:42;4.22;;;2.50;;
72813;SDS011;60945;48.516;-2.768;2022-10-16T16:46:08;4.10;;;2.17;;
72813;SDS011;60945;48.516;-2.768;2022-10-16T16:48:34;4.50;;;2.42;;
72813;SDS011;60945;48.516;-2.768;2022-10-16T16:51:10;4.50;;;2.75;;
72813;SDS011;60945;48.516;-2.768;2022-10-16T16:53:41;5.03;;;2.97;;